X  Close Metar Aviation Weather Data     KHVN Tweed-New Haven
Temperature
75°F Temperature
73°F Dewpoint
94% Humidity



Wind
10 MPH
16 KM/H
4 M/S
9 KTS



100°
East
Current Conditions

Thunderstorm, Mist Thunderstorm, Mist
Pressure 1010.12 (hPa) - 29.83 (inHg)
Visibility 6 (mile) - 9.7 (km)
Airport
Airport-code KHVN

Location Tweed-New Haven 5 (mi)

Metar:
KHVN 031953Z 10009G17KT 6SM TS BR FEW042 BKN055 24/23 A2983 RMK AO2 LTG DSNT N-SE RAB09E35 TSB06E21B23E45B48 SLP099 TS E OF AIRPORT P0029 T02390228

Time: 07-03-2020 15:53 EDT